createdAt,value
2023-01-06T00:01:25.759Z,9.40
2023-01-06T00:03:55.127Z,9.30
2023-01-06T00:06:27.630Z,9.30
2023-01-06T00:09:02.344Z,9.30
2023-01-06T00:11:30.686Z,9.30
2023-01-06T00:13:59.408Z,9.30
2023-01-06T00:16:26.676Z,9.40
2023-01-06T00:18:58.478Z,9.30
2023-01-06T00:21:26.400Z,9.40
2023-01-06T00:23:54.063Z,9.20
2023-01-06T00:26:21.877Z,9.20
2023-01-06T00:28:52.846Z,9.20
2023-01-06T00:31:20.532Z,9.10
2023-01-06T00:33:47.760Z,9.20
2023-01-06T00:36:15.368Z,9.20
2023-01-06T00:38:42.685Z,9.20
2023-01-06T00:41:32.680Z,9.20
2023-01-06T00:44:01.214Z,9.20
2023-01-06T00:46:30.369Z,9.10
2023-01-06T00:49:07.500Z,9.00
2023-01-06T00:51:37.522Z,9.10
2023-01-06T00:54:06.634Z,9.00
2023-01-06T00:56:37.540Z,9.00
2023-01-06T00:59:06.015Z,9.00
2023-01-06T01:01:34.759Z,9.00
2023-01-06T01:04:02.599Z,8.90
2023-01-06T01:06:29.871Z,8.90
2023-01-06T01:08:58.744Z,8.90
2023-01-06T01:11:44.934Z,8.90
2023-01-06T01:14:16.106Z,8.80
2023-01-06T01:16:43.623Z,8.80
2023-01-06T01:19:11.624Z,8.80
2023-01-06T01:21:39.534Z,8.70
2023-01-06T01:24:07.071Z,8.80
2023-01-06T01:26:34.860Z,8.60
2023-01-06T01:29:02.447Z,8.50
2023-01-06T01:31:31.259Z,8.50
2023-01-06T01:33:59.283Z,8.40
2023-01-06T01:36:26.547Z,8.40
2023-01-06T01:38:56.804Z,8.30
2023-01-06T01:41:25.204Z,8.30
2023-01-06T01:43:59.501Z,8.20
2023-01-06T01:46:47.727Z,8.20
2023-01-06T01:49:19.216Z,8.10
2023-01-06T01:51:48.420Z,8.10
2023-01-06T01:54:22.061Z,8.00
2023-01-06T01:56:54.257Z,8.00
2023-01-06T01:59:29.403Z,8.00
2023-01-06T02:01:57.014Z,8.00
2023-01-06T02:04:26.122Z,7.90
2023-01-06T02:06:53.963Z,7.80
2023-01-06T02:09:32.849Z,7.80
2023-01-06T02:12:00.461Z,7.70
2023-01-06T02:14:29.061Z,7.60
2023-01-06T02:17:44.418Z,7.50
2023-01-06T02:20:34.040Z,7.40
2023-01-06T02:23:32.264Z,7.40
2023-01-06T02:26:11.740Z,7.40
2023-01-06T02:28:50.617Z,7.40
2023-01-06T02:32:20.157Z,7.40
2023-01-06T02:35:11.036Z,7.40
2023-01-06T02:38:04.659Z,7.40
2023-01-06T02:41:08.572Z,7.40
2023-01-06T02:43:53.550Z,7.30
2023-01-06T02:46:38.830Z,7.30
2023-01-06T02:49:43.943Z,7.30
2023-01-06T02:52:44.824Z,7.20
2023-01-06T02:55:34.612Z,7.10
2023-01-06T02:58:20.397Z,7.00
2023-01-06T03:00:53.471Z,6.80
2023-01-06T03:03:24.364Z,6.80
2023-01-06T03:05:57.736Z,6.80
2023-01-06T03:08:28.980Z,6.70
2023-01-06T03:10:57.937Z,6.70
2023-01-06T03:13:37.247Z,6.60
2023-01-06T03:16:05.382Z,6.60
2023-01-06T03:18:33.801Z,6.60
2023-01-06T03:21:06.296Z,6.60
2023-01-06T03:23:35.130Z,6.60
2023-01-06T03:26:03.821Z,6.60
2023-01-06T03:28:31.034Z,6.50
2023-01-06T03:31:22.665Z,6.50
2023-01-06T03:34:17.125Z,6.50
2023-01-06T03:36:59.501Z,6.40
2023-01-06T03:39:41.720Z,6.30
2023-01-06T03:42:51.849Z,6.30
2023-01-06T03:45:35.226Z,6.20
2023-01-06T03:48:34.126Z,6.20
2023-01-06T03:51:20.032Z,6.20
2023-01-06T03:54:01.176Z,6.10
2023-01-06T03:56:50.161Z,6.00
2023-01-06T03:59:21.978Z,6.00
2023-01-06T04:01:51.122Z,6.00
2023-01-06T04:04:20.483Z,6.00
2023-01-06T04:06:48.658Z,6.00
2023-01-06T04:09:16.568Z,5.90
2023-01-06T04:12:03.693Z,5.80
2023-01-06T04:14:34.286Z,5.80
2023-01-06T04:17:02.660Z,5.80
2023-01-06T04:19:30.157Z,5.80
2023-01-06T04:21:58.173Z,5.80
2023-01-06T04:24:29.126Z,5.70
2023-01-06T04:26:57.176Z,5.70
2023-01-06T04:29:24.462Z,5.60
2023-01-06T04:31:54.269Z,5.60
2023-01-06T04:34:21.560Z,5.60
2023-01-06T04:36:49.242Z,5.60
2023-01-06T04:39:16.453Z,5.50
2023-01-06T04:41:43.635Z,5.50
2023-01-06T04:44:10.768Z,5.50
2023-01-06T04:46:37.922Z,5.40
2023-01-06T04:49:05.105Z,5.40
2023-01-06T04:51:32.351Z,5.40
2023-01-06T04:53:59.661Z,5.40
2023-01-06T04:56:27.081Z,5.40
2023-01-06T04:58:55.763Z,5.40
2023-01-06T05:01:24.430Z,5.50
2023-01-06T05:03:52.276Z,5.40
2023-01-06T05:06:20.094Z,5.40
2023-01-06T05:08:47.618Z,5.40
2023-01-06T05:11:20.112Z,5.30
2023-01-06T05:13:47.672Z,5.40
2023-01-06T05:16:20.787Z,5.30
2023-01-06T05:18:48.088Z,5.30
2023-01-06T05:21:15.324Z,5.30
2023-01-06T05:23:42.536Z,5.30
2023-01-06T05:26:15.668Z,5.30
2023-01-06T05:28:42.844Z,5.10
2023-01-06T05:31:11.093Z,5.10
2023-01-06T05:33:38.784Z,5.10
2023-01-06T05:36:11.753Z,5.00
2023-01-06T05:38:38.996Z,5.00
2023-01-06T05:41:06.476Z,4.90
2023-01-06T05:43:35.270Z,4.90
2023-01-06T05:46:07.941Z,4.80
2023-01-06T05:48:35.772Z,4.80
2023-01-06T05:51:08.789Z,4.80
2023-01-06T05:53:38.859Z,4.80
2023-01-06T05:56:07.774Z,4.70
2023-01-06T05:58:36.609Z,4.70
2023-01-06T06:01:04.619Z,4.70
2023-01-06T06:03:32.590Z,4.70
2023-01-06T06:06:06.810Z,4.60
2023-01-06T06:08:34.098Z,4.60
2023-01-06T06:11:09.578Z,4.60
2023-01-06T06:13:37.696Z,4.60
2023-01-06T06:16:08.930Z,4.60
2023-01-06T06:18:42.550Z,4.50
2023-01-06T06:21:16.616Z,4.60
2023-01-06T06:23:44.237Z,4.60
2023-01-06T06:26:11.931Z,4.50
2023-01-06T06:28:40.561Z,4.50
2023-01-06T06:31:14.311Z,4.50
2023-01-06T06:33:41.966Z,4.50
2023-01-06T06:36:15.824Z,4.50
2023-01-06T06:38:44.783Z,4.40
2023-01-06T06:41:12.287Z,4.40
2023-01-06T06:43:39.779Z,4.40
2023-01-06T06:46:07.356Z,4.40
2023-01-06T06:48:35.159Z,4.40
2023-01-06T06:51:05.378Z,4.40
2023-01-06T06:53:33.896Z,4.30
2023-01-06T06:56:01.698Z,4.30
2023-01-06T06:58:28.959Z,4.30
2023-01-06T07:00:56.135Z,4.20
2023-01-06T07:03:23.738Z,4.20
2023-01-06T07:05:52.751Z,4.20
2023-01-06T07:08:20.027Z,4.20
2023-01-06T07:10:47.266Z,4.10
2023-01-06T07:13:14.468Z,4.10
2023-01-06T07:15:41.644Z,4.00
2023-01-06T07:18:08.953Z,4.00
2023-01-06T07:20:37.763Z,4.00
2023-01-06T07:23:05.335Z,4.00
2023-01-06T07:25:32.539Z,4.10
2023-01-06T07:28:05.561Z,4.10
2023-01-06T07:30:33.211Z,4.10
2023-01-06T07:33:00.714Z,4.10
2023-01-06T07:35:28.545Z,4.10
2023-01-06T07:37:58.214Z,4.20
2023-01-06T07:40:25.516Z,4.20
2023-01-06T07:42:52.666Z,4.10
2023-01-06T07:45:19.822Z,4.10
2023-01-06T07:47:46.981Z,4.10
2023-01-06T07:50:15.333Z,4.10
2023-01-06T07:52:42.454Z,4.20
2023-01-06T07:55:10.160Z,4.20
2023-01-06T07:57:37.372Z,4.20
2023-01-06T08:00:05.064Z,4.30
2023-01-06T08:02:39.369Z,4.40
2023-01-06T08:05:07.265Z,4.50
2023-01-06T08:07:34.502Z,4.60
2023-01-06T08:10:01.752Z,4.70
2023-01-06T08:12:29.099Z,4.80
2023-01-06T08:14:56.229Z,4.80
2023-01-06T08:17:23.448Z,4.90
2023-01-06T08:19:50.568Z,5.00
2023-01-06T08:22:17.781Z,5.00
2023-01-06T08:24:44.940Z,5.20
2023-01-06T08:27:12.103Z,5.20
2023-01-06T08:29:39.247Z,5.20
2023-01-06T08:32:10.821Z,5.30
2023-01-06T08:34:38.429Z,5.30
2023-01-06T08:37:05.611Z,5.40
2023-01-06T08:39:32.803Z,5.50
2023-01-06T08:42:00.183Z,5.60
2023-01-06T08:44:27.508Z,5.60
2023-01-06T08:46:54.662Z,5.70
2023-01-06T08:49:21.869Z,5.70
2023-01-06T08:51:49.038Z,5.70
2023-01-06T08:54:16.346Z,5.80
2023-01-06T08:56:44.671Z,5.80
2023-01-06T08:59:17.037Z,5.90
2023-01-06T09:01:44.990Z,5.90
2023-01-06T09:04:12.838Z,6.10
2023-01-06T09:06:42.823Z,6.20
2023-01-06T09:09:11.671Z,6.30
2023-01-06T09:11:42.384Z,6.40
2023-01-06T09:14:10.990Z,6.50
2023-01-06T09:16:38.395Z,6.60
2023-01-06T09:19:05.724Z,6.70
2023-01-06T09:21:32.909Z,6.80
2023-01-06T09:24:00.059Z,6.90
2023-01-06T09:26:27.486Z,7.00
2023-01-06T09:28:54.808Z,7.20
2023-01-06T09:31:22.043Z,7.30
2023-01-06T09:33:49.375Z,7.40
2023-01-06T09:36:16.583Z,7.50
2023-01-06T09:38:43.761Z,7.60
2023-01-06T09:41:30.869Z,7.70
2023-01-06T09:44:15.918Z,7.80
2023-01-06T09:46:46.471Z,7.90
2023-01-06T09:49:41.497Z,8.00
2023-01-06T09:52:25.822Z,8.10
2023-01-06T09:55:05.255Z,8.20
2023-01-06T09:57:46.611Z,8.20
2023-01-06T10:00:40.305Z,8.30
2023-01-06T10:03:19.619Z,8.50
2023-01-06T10:06:20.358Z,8.60
2023-01-06T10:09:01.176Z,8.70
2023-01-06T10:11:39.931Z,8.80
2023-01-06T10:14:30.500Z,8.90
2023-01-06T10:17:24.962Z,9.00
2023-01-06T10:20:02.275Z,9.10
2023-01-06T10:22:35.605Z,9.20
2023-01-06T10:25:14.476Z,9.30
2023-01-06T10:27:48.687Z,9.40
2023-01-06T10:30:40.221Z,9.40
2023-01-06T10:33:22.684Z,9.50
2023-01-06T10:35:51.061Z,9.50
2023-01-06T10:38:22.518Z,9.60
2023-01-06T10:40:49.793Z,9.80
2023-01-06T10:43:22.366Z,9.90
2023-01-06T10:45:51.299Z,9.80
2023-01-06T10:48:23.310Z,9.90
2023-01-06T10:50:50.716Z,9.90
2023-01-06T10:53:18.133Z,10.00
2023-01-06T10:55:54.912Z,10.10
2023-01-06T10:58:53.861Z,10.20
2023-01-06T11:01:26.408Z,10.20
2023-01-06T11:04:15.367Z,10.20
2023-01-06T11:06:51.109Z,10.30
2023-01-06T11:09:27.469Z,10.30
2023-01-06T11:11:56.864Z,10.40
2023-01-06T11:14:28.834Z,10.40
2023-01-06T11:17:09.195Z,10.60
2023-01-06T11:19:44.623Z,10.50
2023-01-06T11:22:32.893Z,10.50
2023-01-06T11:25:00.393Z,10.50
2023-01-06T11:27:27.594Z,10.40
2023-01-06T11:29:55.331Z,10.40
2023-01-06T11:32:28.573Z,10.50
2023-01-06T11:35:06.461Z,10.30
2023-01-06T11:37:43.004Z,10.30
2023-01-06T11:40:27.278Z,10.30
2023-01-06T11:43:01.789Z,10.40
2023-01-06T11:45:32.061Z,10.30
2023-01-06T11:47:59.353Z,10.40
2023-01-06T11:50:26.689Z,10.40
2023-01-06T11:53:01.603Z,10.50
2023-01-06T11:55:29.026Z,10.40
2023-01-06T11:58:43.278Z,10.30
2023-01-06T12:01:35.962Z,10.40
2023-01-06T12:04:12.273Z,10.50
2023-01-06T12:06:44.434Z,10.40
2023-01-06T12:09:32.898Z,10.50
2023-01-06T12:12:07.590Z,10.50
2023-01-06T12:14:36.691Z,10.50
2023-01-06T12:17:11.107Z,10.50
2023-01-06T12:19:41.280Z,10.70
2023-01-06T12:22:43.014Z,10.70
2023-01-06T12:25:31.267Z,10.60
2023-01-06T12:28:04.293Z,10.70
2023-01-06T12:30:36.535Z,10.70
2023-01-06T12:33:27.764Z,10.80
2023-01-06T12:35:58.444Z,10.90
2023-01-06T12:38:47.288Z,10.90
2023-01-06T12:41:23.398Z,10.80
2023-01-06T12:44:02.829Z,10.60
2023-01-06T12:46:38.163Z,10.70
2023-01-06T12:49:36.812Z,10.60
2023-01-06T12:52:11.524Z,10.70
2023-01-06T12:54:39.028Z,10.70
2023-01-06T12:57:15.177Z,10.90
2023-01-06T13:00:10.077Z,10.90
2023-01-06T13:02:48.056Z,10.90
2023-01-06T13:05:40.042Z,10.90
2023-01-06T13:08:24.135Z,10.80
2023-01-06T13:10:59.065Z,10.90
2023-01-06T13:13:46.027Z,11.00
2023-01-06T13:16:23.477Z,11.00
2023-01-06T13:19:25.051Z,11.10
2023-01-06T13:21:57.428Z,11.10
2023-01-06T13:24:43.740Z,11.10
2023-01-06T13:27:38.947Z,11.10
2023-01-06T13:30:31.670Z,11.10
2023-01-06T13:33:27.296Z,10.90
2023-01-06T13:36:12.902Z,10.90
2023-01-06T13:39:00.062Z,10.80
2023-01-06T13:41:33.633Z,10.70
2023-01-06T13:44:02.431Z,10.50
2023-01-06T13:46:31.968Z,10.40
2023-01-06T13:49:03.022Z,10.50
2023-01-06T13:51:34.884Z,10.40
2023-01-06T13:54:03.014Z,10.40
2023-01-06T13:56:35.060Z,10.40
2023-01-06T13:59:20.842Z,10.50
2023-01-06T14:01:48.570Z,10.50
2023-01-06T14:04:36.603Z,10.40
2023-01-06T14:07:05.030Z,10.40
2023-01-06T14:09:36.573Z,10.30
2023-01-06T14:12:17.269Z,10.30
2023-01-06T14:14:44.518Z,10.30
2023-01-06T14:17:41.081Z,10.30
2023-01-06T14:20:33.814Z,10.30
2023-01-06T14:23:02.055Z,10.20
2023-01-06T14:25:31.086Z,10.20
2023-01-06T14:28:01.203Z,10.20
2023-01-06T14:30:31.782Z,10.20
2023-01-06T14:33:08.227Z,10.20
2023-01-06T14:35:43.846Z,10.30
2023-01-06T14:38:19.935Z,10.20
2023-01-06T14:41:06.048Z,10.20
2023-01-06T14:43:38.338Z,10.10
2023-01-06T14:46:28.785Z,10.10
2023-01-06T14:49:04.029Z,10.00
2023-01-06T14:51:32.882Z,10.00
2023-01-06T14:54:28.432Z,9.90
2023-01-06T14:56:58.214Z,10.00
2023-01-06T14:59:25.808Z,9.90
2023-01-06T15:02:11.923Z,9.90
2023-01-06T15:04:39.539Z,9.90
2023-01-06T15:07:22.055Z,9.80
2023-01-06T15:09:51.081Z,9.90
2023-01-06T15:12:26.469Z,9.80
2023-01-06T15:14:53.799Z,9.80
2023-01-06T15:17:21.855Z,9.80
2023-01-06T15:19:51.140Z,9.80
2023-01-06T15:22:24.745Z,9.70
2023-01-06T15:24:52.300Z,9.80
2023-01-06T15:27:20.064Z,9.70
2023-01-06T15:29:56.009Z,9.70
2023-01-06T15:32:25.829Z,9.70
2023-01-06T15:34:56.593Z,9.60
2023-01-06T15:37:25.940Z,9.60
2023-01-06T15:39:53.984Z,9.50
2023-01-06T15:42:26.197Z,9.50
2023-01-06T15:44:58.344Z,9.40
2023-01-06T15:47:34.949Z,9.40
2023-01-06T15:50:06.270Z,9.40
2023-01-06T15:52:40.041Z,9.40
2023-01-06T15:55:29.613Z,9.40
2023-01-06T15:58:06.709Z,9.30
2023-01-06T16:00:41.328Z,9.20
2023-01-06T16:03:20.916Z,9.30
2023-01-06T16:05:51.882Z,9.30
2023-01-06T16:08:25.491Z,9.30
2023-01-06T16:11:38.845Z,9.30
2023-01-06T16:14:22.908Z,9.20
2023-01-06T16:16:50.447Z,9.20
2023-01-06T16:19:20.817Z,9.10
2023-01-06T16:21:52.469Z,9.10
2023-01-06T16:24:23.741Z,9.00
2023-01-06T16:27:03.406Z,9.10
2023-01-06T16:29:37.891Z,9.20
2023-01-06T16:32:40.772Z,9.20
2023-01-06T16:35:19.717Z,9.20
2023-01-06T16:37:47.157Z,9.20
2023-01-06T16:40:16.277Z,9.30
2023-01-06T16:42:45.086Z,9.30
2023-01-06T16:45:40.129Z,9.30
2023-01-06T16:48:07.542Z,9.20
2023-01-06T16:50:38.208Z,9.10
2023-01-06T16:53:18.576Z,9.10
2023-01-06T16:55:49.746Z,9.10
2023-01-06T16:58:22.454Z,9.10
2023-01-06T17:00:52.628Z,9.00
2023-01-06T17:03:28.640Z,9.10
2023-01-06T17:05:56.855Z,9.00
2023-01-06T17:08:28.897Z,9.10
2023-01-06T17:10:56.653Z,9.20
2023-01-06T17:13:35.852Z,9.20
2023-01-06T17:16:27.140Z,9.00
2023-01-06T17:19:00.714Z,9.00
2023-01-06T17:21:38.521Z,9.10
2023-01-06T17:24:12.599Z,9.10
2023-01-06T17:26:40.892Z,9.10
2023-01-06T17:29:15.851Z,9.00
2023-01-06T17:31:48.319Z,9.10
2023-01-06T17:34:17.536Z,9.20
2023-01-06T17:36:47.218Z,9.10
2023-01-06T17:39:22.195Z,9.10
2023-01-06T17:41:52.143Z,9.10
2023-01-06T17:44:29.184Z,9.10
2023-01-06T17:46:56.466Z,9.20
2023-01-06T17:49:24.151Z,9.20
2023-01-06T17:51:51.954Z,9.20
2023-01-06T17:54:40.825Z,9.30
2023-01-06T17:57:18.609Z,9.20
2023-01-06T17:59:46.351Z,9.30
2023-01-06T18:02:39.505Z,9.30
2023-01-06T18:05:25.297Z,9.30
2023-01-06T18:08:07.641Z,9.40
2023-01-06T18:10:41.607Z,9.30
2023-01-06T18:13:23.946Z,9.30
2023-01-06T18:15:57.185Z,9.30
2023-01-06T18:18:37.756Z,9.30
2023-01-06T18:21:16.964Z,9.30
2023-01-06T18:23:50.628Z,9.20
2023-01-06T18:26:47.852Z,9.20
2023-01-06T18:29:31.236Z,9.10
2023-01-06T18:32:22.154Z,9.00
2023-01-06T18:34:57.749Z,9.00
2023-01-06T18:37:29.096Z,9.00
2023-01-06T18:40:02.761Z,9.00
2023-01-06T18:42:35.971Z,9.00
2023-01-06T18:45:34.985Z,8.90
2023-01-06T18:48:13.775Z,9.00
2023-01-06T18:50:46.265Z,9.00
2023-01-06T18:53:13.355Z,8.90
2023-01-06T18:55:45.321Z,8.90
2023-01-06T18:58:31.285Z,8.90
2023-01-06T19:01:02.115Z,8.90
2023-01-06T19:03:48.688Z,8.90
2023-01-06T19:06:18.725Z,8.90
2023-01-06T19:08:49.738Z,8.90
2023-01-06T19:11:21.093Z,9.00
2023-01-06T19:13:49.231Z,9.10
2023-01-06T19:16:27.504Z,9.00
2023-01-06T19:18:58.962Z,9.00
2023-01-06T19:21:26.564Z,9.00
2023-01-06T19:23:53.717Z,9.00
2023-01-06T19:26:36.497Z,9.00
2023-01-06T19:29:11.272Z,9.00
2023-01-06T19:31:45.083Z,9.00
2023-01-06T19:34:15.632Z,8.90
2023-01-06T19:36:46.839Z,8.90
2023-01-06T19:39:36.060Z,8.90
2023-01-06T19:42:11.869Z,8.80
2023-01-06T19:44:39.523Z,8.70
2023-01-06T19:47:27.675Z,8.70
2023-01-06T19:49:59.585Z,8.70
2023-01-06T19:52:34.035Z,8.70
2023-01-06T19:55:19.824Z,8.60
2023-01-06T19:57:53.742Z,8.60
2023-01-06T20:00:30.508Z,8.50
2023-01-06T20:03:01.650Z,8.60
2023-01-06T20:05:31.450Z,8.50
2023-01-06T20:07:58.678Z,8.50
2023-01-06T20:10:25.848Z,8.50
2023-01-06T20:12:53.150Z,8.50
2023-01-06T20:15:20.385Z,8.50
2023-01-06T20:17:47.597Z,8.50
2023-01-06T20:20:15.634Z,8.50
2023-01-06T20:22:44.600Z,8.40
2023-01-06T20:25:11.832Z,8.30
2023-01-06T20:27:39.144Z,8.30
2023-01-06T20:30:06.968Z,8.20
2023-01-06T20:32:34.329Z,8.20
2023-01-06T20:35:01.585Z,8.10
2023-01-06T20:37:28.791Z,8.10
2023-01-06T20:39:56.330Z,8.10
2023-01-06T20:42:23.601Z,8.00
2023-01-06T20:44:50.764Z,8.10
2023-01-06T20:47:18.013Z,8.10
2023-01-06T20:49:45.246Z,8.10
2023-01-06T20:52:12.477Z,8.10
2023-01-06T20:54:39.647Z,8.20
2023-01-06T20:57:07.168Z,8.40
2023-01-06T20:59:34.434Z,8.30
2023-01-06T21:02:01.888Z,8.30
2023-01-06T21:04:29.216Z,8.30
2023-01-06T21:06:56.390Z,8.20
2023-01-06T21:09:28.099Z,8.30
2023-01-06T21:11:56.352Z,8.20
2023-01-06T21:14:25.729Z,8.30
2023-01-06T21:16:52.934Z,8.30
2023-01-06T21:19:20.117Z,8.50
2023-01-06T21:21:48.350Z,8.40
2023-01-06T21:24:16.437Z,8.30
2023-01-06T21:26:43.573Z,8.50
2023-01-06T21:29:10.780Z,8.40
2023-01-06T21:31:38.064Z,8.40
2023-01-06T21:34:05.288Z,8.40
2023-01-06T21:36:32.453Z,8.50
2023-01-06T21:38:59.609Z,8.60
2023-01-06T21:41:45.399Z,8.50
2023-01-06T21:44:12.545Z,8.60
2023-01-06T21:46:40.179Z,8.60
2023-01-06T21:49:07.556Z,8.60
2023-01-06T21:51:35.658Z,8.60
2023-01-06T21:54:06.910Z,8.60
2023-01-06T21:56:35.724Z,8.60
2023-01-06T21:59:03.074Z,8.60
2023-01-06T22:01:30.527Z,8.60
2023-01-06T22:03:57.722Z,8.60
2023-01-06T22:06:25.539Z,8.60
2023-01-06T22:08:54.007Z,8.60
2023-01-06T22:11:21.205Z,8.50
2023-01-06T22:13:48.554Z,8.60
2023-01-06T22:16:16.036Z,8.60
2023-01-06T22:18:43.336Z,8.60
2023-01-06T22:21:11.651Z,8.60
2023-01-06T22:23:39.812Z,8.60
2023-01-06T22:26:07.006Z,8.60
2023-01-06T22:28:34.213Z,8.60
2023-01-06T22:31:01.506Z,8.70
2023-01-06T22:33:30.093Z,8.70
2023-01-06T22:35:58.470Z,8.70
2023-01-06T22:38:26.028Z,8.70
2023-01-06T22:40:53.179Z,8.70
2023-01-06T22:43:20.349Z,8.60
2023-01-06T22:45:52.006Z,8.60
2023-01-06T22:48:19.756Z,8.60
2023-01-06T22:50:46.982Z,8.60
2023-01-06T22:53:14.798Z,8.60
2023-01-06T22:55:41.958Z,8.50
2023-01-06T22:58:09.111Z,8.50
2023-01-06T23:00:36.277Z,8.50
2023-01-06T23:03:03.511Z,8.50
2023-01-06T23:05:30.677Z,8.40
2023-01-06T23:07:57.863Z,8.40
2023-01-06T23:10:25.000Z,8.30
2023-01-06T23:12:52.864Z,8.40
2023-01-06T23:15:20.018Z,8.40
2023-01-06T23:17:48.297Z,8.40
2023-01-06T23:20:18.279Z,8.40
2023-01-06T23:22:45.778Z,8.40
2023-01-06T23:25:12.933Z,8.40
2023-01-06T23:27:41.107Z,8.40
2023-01-06T23:30:09.002Z,8.50
2023-01-06T23:32:36.294Z,8.50
2023-01-06T23:35:03.813Z,8.50
2023-01-06T23:37:31.037Z,8.50
2023-01-06T23:39:58.156Z,8.60
2023-01-06T23:42:25.562Z,8.60
2023-01-06T23:44:52.728Z,8.60
2023-01-06T23:47:19.941Z,8.60
2023-01-06T23:49:48.707Z,8.60
2023-01-06T23:52:15.962Z,8.60
2023-01-06T23:54:43.154Z,8.60
2023-01-06T23:57:10.315Z,8.60
2023-01-06T23:59:37.514Z,8.60
